Terminal Aerodrome Forecast
Issued by NWS Shreveport, LA

Current Version | Previous Version | Text Only | Print | Product List | Glossary On
Versions: 1 2 3 4 5 6 7 8 9 10 11 12 13 14
835
FTUS44 KSHV 140548
TAFSHV
TAF
KSHV 140548Z 1406/1506 14009KT P6SM BKN040 OVC260
     FM140900 15008KT P6SM OVC030
     FM141500 17010KT P6SM OVC020
     FM150000 16008KT 6SM BR VCSH OVC015=

USA.gov is the U.S. government's official web portal to all federal, state and local government web resources and services.